CheckWX is a tool to help pilots better visualize weather data.  It is not intended as a substitute for an official pre-flight weather briefing.

00:09:21 UTC

57C METAR
East Troy Municipal Airport
East Troy, Wisconsin, USA
Current

14 mins ago

K57C 242355Z AUTO 11003KT 10SM BKN030 BKN038 17/14 A2993 RMK AO2 T01720142 10176 20130
Observed
May-24 @ 23:55 UTC
Wind
  • 110° at 3 KTS
Visibility
10 SM
Flight Rules
MVFR
Cloud Levels
  • Broken at 3,000' AGL
  • Broken at 3,800' AGL
Temperature
17°C / 63°F
Dewpoint
14°C / 57°F
Humidity
83%
Altimeter
29.93" Hg
Pressure
1013.52 hPa
Previous

34 mins ago

K57C 242335Z AUTO 13006KT 10SM SCT018 SCT035 17/14 A2994 RMK AO2 T01730140
Observed
May-24 @ 23:35 UTC
Wind
  • 130° at 6 KTS
Visibility
10 SM
Flight Rules
VFR
Cloud Levels
  • Scattered at 1,800' AGL
  • Scattered at 3,500' AGL
Temperature
17°C / 63°F
Dewpoint
14°C / 57°F
Humidity
83%
Altimeter
29.94" Hg
Pressure
1013.92 hPa
Previous

54 mins ago

K57C 242315Z AUTO 12006KT 10SM BKN018 17/14 A2995 RMK AO2 T01720140
Observed
May-24 @ 23:15 UTC
Wind
  • 120° at 6 KTS
Visibility
10 SM
Flight Rules
MVFR
Cloud Levels
  • Broken at 1,800' AGL
Temperature
17°C / 63°F
Dewpoint
14°C / 57°F
Humidity
83%
Altimeter
29.95" Hg
Pressure
1014.22 hPa